aviador You're here:

KCUB Decoded Metar

COLUMBIA-OWENS in SC, USA
Report Time2018-05-26 14:53:00
UTC Time2018-05-26 15:39:05
Flight Rules mvfr MVFR
Wind160° at 04 kt
W.Decomp.*RWY 13: 3.2 kt HW 2.4 kt RCW
W.Rank160° ranks 18
Current wind is below 160° avg. (4.9)
Visibility9999 m
Phenomena:N/A
Clouds:Scattered 016 Hf
Broken 021 Hf
Overcast 027 Hf
Expected CloudBase > 1,600 ft AGL from Temp-Dew spread
Ceiling2,100 ft
Temp26°C (ISA +11)
Dew Point22°C (79% RH)
QNH1016 hPa
Density Alt1,745 ft
Elevation184 ft
Report Wrong Elevation
Raw Report
METAR KCUB 261453Z AUTO 16004KT 10SM SCT016 BKN021 OVC027 26/22 A3001
RMK AO2 SLP160 T02610222 50002=

Extra information for KCUB:More info

Metar Taf Metar & Taf Last 4 Metars F.Rules Stats Wind Profile Meteogram Temp Stats Airport Information Weather charts Add Link Nearby VenuesMetar ALERT Operation Metar Decoded Social comments

AIRNAV info for KCUB